createdAt,value
2023-03-08T00:04:00.594Z,15.82
2023-03-08T00:09:03.017Z,14.50
2023-03-08T00:14:04.954Z,14.80
2023-03-08T00:19:06.881Z,15.23
2023-03-08T00:24:08.731Z,14.27
2023-03-08T00:29:10.736Z,15.63
2023-03-08T00:34:12.496Z,13.33
2023-03-08T00:39:16.564Z,16.38
2023-03-08T00:44:18.332Z,15.60
2023-03-08T00:49:20.190Z,15.67
2023-03-08T00:54:21.930Z,14.10
2023-03-08T00:59:23.781Z,14.27
2023-03-08T01:04:25.880Z,13.50
2023-03-08T01:09:40.337Z,12.10
2023-03-08T01:14:52.710Z,13.15
2023-03-08T01:24:59.323Z,12.18
2023-03-08T01:30:04.020Z,12.10
2023-03-08T01:35:06.340Z,13.73
2023-03-08T01:40:10.879Z,13.48
2023-03-08T01:45:50.643Z,15.10
2023-03-08T01:50:53.049Z,16.58
2023-03-08T01:55:55.474Z,15.07
2023-03-08T02:00:57.755Z,12.48
2023-03-08T02:05:59.694Z,13.43
2023-03-08T02:11:01.848Z,16.95
2023-03-08T02:16:07.919Z,12.90
2023-03-08T02:21:09.943Z,14.48
2023-03-08T02:26:11.952Z,15.53
2023-03-08T02:31:14.747Z,13.95
2023-03-08T02:41:18.071Z,18.00
2023-03-08T02:46:19.885Z,14.35
2023-03-08T02:51:21.716Z,14.13
2023-03-08T02:56:23.640Z,15.52
2023-03-08T03:01:25.836Z,15.38
2023-03-08T03:06:27.737Z,21.20
2023-03-08T03:11:31.463Z,15.38
2023-03-08T03:16:33.809Z,13.38
2023-03-08T03:21:35.727Z,15.02
2023-03-08T03:26:37.543Z,14.20
2023-03-08T03:31:39.342Z,14.27
2023-03-08T03:36:41.124Z,13.97
2023-03-08T03:41:42.864Z,14.50
2023-03-08T03:46:47.595Z,14.77
2023-03-08T03:51:52.708Z,14.75
2023-03-08T03:57:00.319Z,17.30
2023-03-08T04:02:06.273Z,14.85
2023-03-08T04:07:13.801Z,14.75
2023-03-08T04:12:23.327Z,15.80
2023-03-08T04:17:25.481Z,13.43
2023-03-08T04:22:29.379Z,17.15
2023-03-08T04:27:39.718Z,18.05
2023-03-08T04:32:42.513Z,17.88
2023-03-08T04:37:46.818Z,16.52
2023-03-08T04:42:50.779Z,20.35
2023-03-08T04:47:58.183Z,19.30
2023-03-08T04:53:00.053Z,18.13
2023-03-08T04:58:03.455Z,18.30
2023-03-08T05:03:07.007Z,19.55
2023-03-08T05:08:08.997Z,17.77
2023-03-08T05:13:12.216Z,19.10
2023-03-08T05:18:14.682Z,18.33
2023-03-08T05:23:16.621Z,19.10
2023-03-08T05:28:20.255Z,20.25
2023-03-08T05:33:21.951Z,20.27
2023-03-08T05:43:27.994Z,23.40
2023-03-08T05:48:31.553Z,20.80
2023-03-08T05:53:33.778Z,19.27
2023-03-08T05:58:37.384Z,19.92
2023-03-08T06:03:40.379Z,23.55
2023-03-08T06:08:42.527Z,21.55
2023-03-08T06:13:45.292Z,15.55
2023-03-08T06:18:48.069Z,33.45
2023-03-08T06:23:51.949Z,22.45
2023-03-08T06:28:54.386Z,22.00
2023-03-08T06:33:58.173Z,19.33
2023-03-08T06:39:02.722Z,28.73
2023-03-08T06:44:06.431Z,20.15
2023-03-08T06:49:09.172Z,18.83
2023-03-08T06:54:17.351Z,20.73
2023-03-08T06:59:20.822Z,21.15
2023-03-08T07:04:22.539Z,22.35
2023-03-08T07:09:24.199Z,21.85
2023-03-08T07:14:26.663Z,20.85
2023-03-08T07:19:28.355Z,24.90
2023-03-08T07:24:30.119Z,28.33
2023-03-08T07:29:32.236Z,24.13
2023-03-08T07:34:34.072Z,28.13
2023-03-08T07:39:35.856Z,22.15
2023-03-08T07:44:37.940Z,24.00
2023-03-08T07:49:39.628Z,23.87
2023-03-08T07:54:42.111Z,21.97
2023-03-08T07:59:43.791Z,23.43
2023-03-08T08:04:45.653Z,27.65
2023-03-08T08:09:47.427Z,22.75
2023-03-08T08:19:55.099Z,21.75
2023-03-08T08:24:56.889Z,21.48
2023-03-08T08:29:59.386Z,22.67
2023-03-08T08:35:01.072Z,23.85
2023-03-08T08:40:04.082Z,22.50
2023-03-08T08:45:06.440Z,24.85
2023-03-08T08:50:08.914Z,20.40
2023-03-08T08:55:10.670Z,24.75
2023-03-08T09:00:13.035Z,25.33
2023-03-08T09:05:14.800Z,33.80
2023-03-08T09:10:16.875Z,27.67
2023-03-08T09:15:18.676Z,25.20
2023-03-08T09:20:23.195Z,23.88
2023-03-08T09:25:25.341Z,23.10
2023-03-08T09:30:27.136Z,23.33
2023-03-08T09:35:28.936Z,27.00
2023-03-08T09:40:33.643Z,24.23
2023-03-08T09:45:35.898Z,26.90
2023-03-08T09:50:44.613Z,24.83
2023-03-08T09:55:51.851Z,25.95
2023-03-08T10:00:57.195Z,24.90
2023-03-08T10:06:11.708Z,26.25
2023-03-08T10:11:21.178Z,27.35
2023-03-08T10:16:24.932Z,34.28
2023-03-08T10:21:29.442Z,32.65
2023-03-08T10:26:31.321Z,31.08
2023-03-08T10:31:33.812Z,30.75
2023-03-08T10:36:47.778Z,33.53
2023-03-08T10:41:53.248Z,37.63
2023-03-08T10:46:54.889Z,34.45
2023-03-08T10:52:00.969Z,35.35
2023-03-08T10:57:03.094Z,50.05
2023-03-08T11:02:13.805Z,35.47
2023-03-08T11:07:29.092Z,33.53
2023-03-08T11:12:30.775Z,31.25
2023-03-08T11:17:39.456Z,33.23
2023-03-08T11:22:58.605Z,30.00
2023-03-08T11:28:16.721Z,31.23
2023-03-08T11:33:45.548Z,32.70
2023-03-08T11:38:56.831Z,29.17
2023-03-08T11:44:24.134Z,26.80
2023-03-08T11:49:34.776Z,23.83
2023-03-08T11:55:02.436Z,25.05
2023-03-08T12:00:23.085Z,23.38
2023-03-08T12:05:30.442Z,24.08
2023-03-08T12:11:04.766Z,20.83
2023-03-08T12:16:23.168Z,46.75
2023-03-08T12:21:29.934Z,16.35
2023-03-08T12:26:54.686Z,19.25
2023-03-08T12:31:57.227Z,15.55
2023-03-08T12:36:59.029Z,17.95
2023-03-08T12:42:09.862Z,15.95
2023-03-08T12:47:11.683Z,15.05
2023-03-08T12:52:19.635Z,15.20
2023-03-08T12:57:24.603Z,16.27
2023-03-08T13:02:31.032Z,14.70
2023-03-08T13:07:40.061Z,14.05
2023-03-08T13:13:09.615Z,15.07
2023-03-08T13:18:17.558Z,14.52
2023-03-08T13:23:58.708Z,17.13
2023-03-08T13:29:00.880Z,13.32
2023-03-08T13:34:02.652Z,11.80
2023-03-08T13:39:18.691Z,14.45
2023-03-08T13:44:25.812Z,11.52
2023-03-08T13:49:32.489Z,8.77
2023-03-08T13:54:37.311Z,8.82
2023-03-08T13:59:54.647Z,6.57
2023-03-08T14:04:58.694Z,6.68
2023-03-08T14:10:01.232Z,6.75
2023-03-08T14:15:05.652Z,7.13
2023-03-08T14:20:20.892Z,6.72
2023-03-08T14:25:26.229Z,5.88
2023-03-08T14:30:30.527Z,4.82
2023-03-08T14:35:38.561Z,6.78
2023-03-08T14:40:49.252Z,8.70
2023-03-08T14:45:58.287Z,5.80
2023-03-08T14:51:02.257Z,4.43
2023-03-08T14:56:16.874Z,4.93
2023-03-08T15:01:34.327Z,4.57
2023-03-08T15:06:39.365Z,4.45
2023-03-08T15:11:41.468Z,4.70
2023-03-08T15:16:43.249Z,5.37
2023-03-08T15:21:45.286Z,4.67
2023-03-08T15:26:47.051Z,3.58
2023-03-08T15:31:48.857Z,3.25
2023-03-08T15:36:51.923Z,4.93
2023-03-08T15:46:56.141Z,3.20
2023-03-08T15:51:57.862Z,3.53
2023-03-08T15:56:59.738Z,4.60
2023-03-08T16:02:02.390Z,3.20
2023-03-08T16:07:04.390Z,4.15
2023-03-08T16:12:06.498Z,2.70
2023-03-08T16:17:09.053Z,3.67
2023-03-08T16:22:11.159Z,3.05
2023-03-08T16:27:12.941Z,3.57
2023-03-08T16:32:18.555Z,3.65
2023-03-08T16:37:21.239Z,4.10
2023-03-08T16:42:23.045Z,2.38
2023-03-08T16:47:26.609Z,6.95
2023-03-08T16:52:29.086Z,25.98
2023-03-08T16:57:30.876Z,3.80
2023-03-08T17:02:32.668Z,3.25
2023-03-08T17:07:34.615Z,3.83
2023-03-08T17:12:36.363Z,3.30
2023-03-08T17:17:39.701Z,4.50
2023-03-08T17:22:42.607Z,4.32
2023-03-08T17:27:44.344Z,3.97
2023-03-08T17:32:47.451Z,4.85
2023-03-08T17:37:50.088Z,3.73
2023-03-08T17:48:00.609Z,3.92
2023-03-08T17:53:02.873Z,3.97
2023-03-08T17:58:04.527Z,7.05
2023-03-08T18:03:06.324Z,4.13
2023-03-08T18:08:07.941Z,4.43
2023-03-08T18:13:10.289Z,4.75
2023-03-08T18:18:11.908Z,5.00
2023-03-08T18:23:13.612Z,3.53
2023-03-08T18:28:23.557Z,2.60
2023-03-08T18:33:28.387Z,2.00
2023-03-08T18:38:30.071Z,3.33
2023-03-08T18:43:32.809Z,2.90
2023-03-08T18:53:37.110Z,4.38
2023-03-08T18:58:38.886Z,4.30
2023-03-08T19:03:41.742Z,4.37
2023-03-08T19:08:43.755Z,3.47
2023-03-08T19:13:46.790Z,3.20
2023-03-08T19:18:50.382Z,6.78
2023-03-08T19:23:52.422Z,4.70
2023-03-08T19:28:54.241Z,6.17
2023-03-08T19:33:56.577Z,5.07
2023-03-08T19:38:59.840Z,4.88
2023-03-08T19:44:06.929Z,3.92
2023-03-08T19:49:12.864Z,5.25
2023-03-08T19:54:14.868Z,3.20
2023-03-08T19:59:17.346Z,4.23
2023-03-08T20:04:19.969Z,5.28
2023-03-08T20:09:22.474Z,4.07
2023-03-08T20:14:24.719Z,3.15
2023-03-08T20:24:29.412Z,3.90
2023-03-08T20:29:31.121Z,5.38
2023-03-08T20:34:33.417Z,3.20
2023-03-08T20:39:35.064Z,3.50
2023-03-08T20:44:36.792Z,2.90
2023-03-08T20:49:40.182Z,2.78
2023-03-08T20:54:42.424Z,3.85
2023-03-08T20:59:44.295Z,4.00
2023-03-08T21:04:46.055Z,3.20
2023-03-08T21:09:47.994Z,2.97
2023-03-08T21:14:53.930Z,3.05
2023-03-08T21:19:56.099Z,3.47
2023-03-08T21:24:57.862Z,3.23
2023-03-08T21:30:00.409Z,4.43
2023-03-08T21:35:02.470Z,3.15
2023-03-08T21:40:07.155Z,4.17
2023-03-08T21:45:09.434Z,4.32
2023-03-08T21:50:11.748Z,5.28
2023-03-08T21:55:13.445Z,3.47
2023-03-08T22:00:18.271Z,3.42
2023-03-08T22:05:20.037Z,5.05
2023-03-08T22:10:21.922Z,4.10
2023-03-08T22:15:23.621Z,5.93
2023-03-08T22:20:27.460Z,4.93
2023-03-08T22:25:29.192Z,6.65
2023-03-08T22:30:31.038Z,5.18
2023-03-08T22:35:32.755Z,5.68
2023-03-08T22:40:38.248Z,4.32
2023-03-08T22:45:40.007Z,6.03
2023-03-08T22:50:41.975Z,5.80
2023-03-08T22:55:47.668Z,4.47
2023-03-08T23:00:49.732Z,4.55
2023-03-08T23:05:53.168Z,4.88
2023-03-08T23:10:55.166Z,4.57
2023-03-08T23:15:56.855Z,7.65
2023-03-08T23:21:06.566Z,7.15
2023-03-08T23:26:12.131Z,5.55
2023-03-08T23:31:15.276Z,5.70
2023-03-08T23:36:20.104Z,6.82
2023-03-08T23:41:22.180Z,8.73
2023-03-08T23:46:25.068Z,6.53
2023-03-08T23:56:38.492Z,6.47
